createdAt,value
2022-09-04T00:02:17.551Z,6.25
2022-09-04T00:08:14.994Z,7.00
2022-09-04T00:11:14.959Z,5.75
2022-09-04T00:13:48.808Z,6.00
2022-09-04T00:16:30.609Z,6.00
2022-09-04T00:19:21.599Z,5.00
2022-09-04T00:22:00.582Z,4.75
2022-09-04T00:24:42.232Z,6.00
2022-09-04T00:27:20.776Z,5.00
2022-09-04T00:29:56.885Z,3.75
2022-09-04T00:32:32.603Z,3.00
2022-09-04T00:35:29.337Z,4.00
2022-09-04T00:38:05.341Z,6.00
2022-09-04T00:40:48.311Z,4.50
2022-09-04T00:43:42.928Z,5.00
2022-09-04T00:46:48.875Z,5.00
2022-09-04T00:49:39.688Z,3.00
2022-09-04T00:52:31.323Z,3.00
2022-09-04T00:55:10.786Z,3.50
2022-09-04T00:58:01.846Z,4.00
2022-09-04T01:00:32.630Z,4.25
2022-09-04T01:03:30.246Z,4.00
2022-09-04T01:06:30.902Z,4.00
2022-09-04T01:09:07.177Z,3.00
2022-09-04T01:12:10.963Z,5.00
2022-09-04T01:14:52.991Z,3.00
2022-09-04T01:17:40.363Z,3.50
2022-09-04T01:20:22.579Z,3.00
2022-09-04T01:29:15.194Z,2.50
2022-09-04T01:32:06.278Z,4.00
2022-09-04T01:38:18.861Z,4.50
2022-09-04T01:41:07.074Z,4.00
2022-09-04T01:43:37.494Z,5.00
2022-09-04T01:49:28.875Z,4.00
2022-09-04T01:52:22.536Z,4.00
2022-09-04T01:55:02.149Z,5.25
2022-09-04T01:57:50.176Z,5.00
2022-09-04T02:00:24.951Z,6.00
2022-09-04T02:06:04.199Z,5.00
2022-09-04T02:08:58.258Z,5.00
2022-09-04T02:11:32.729Z,4.00
2022-09-04T02:14:21.063Z,4.00
2022-09-04T02:17:03.632Z,4.75
2022-09-04T02:19:49.206Z,4.50
2022-09-04T02:22:28.393Z,5.00
2022-09-04T02:25:19.762Z,5.00
2022-09-04T02:27:56.165Z,5.00
2022-09-04T02:30:47.174Z,7.25
2022-09-04T02:33:24.691Z,6.00
2022-09-04T02:36:21.530Z,5.50
2022-09-04T02:39:04.005Z,7.00
2022-09-04T02:41:40.784Z,6.50
2022-09-04T02:44:42.459Z,6.00
2022-09-04T02:47:37.677Z,5.75
2022-09-04T02:50:40.388Z,6.00
2022-09-04T02:53:34.051Z,6.75
2022-09-04T02:56:34.044Z,8.00
2022-09-04T02:59:27.803Z,7.25
2022-09-04T03:04:49.986Z,6.75
2022-09-04T03:07:47.183Z,6.50
2022-09-04T03:10:20.372Z,6.50
2022-09-04T03:12:59.359Z,5.25
2022-09-04T03:15:42.572Z,9.00
2022-09-04T03:21:17.614Z,7.25
2022-09-04T03:23:56.280Z,6.00
2022-09-04T03:26:32.312Z,4.00
2022-09-04T03:29:28.375Z,4.00
2022-09-04T03:32:17.062Z,5.75
2022-09-04T03:34:57.225Z,5.25
2022-09-04T03:37:36.192Z,4.75
2022-09-04T03:40:29.722Z,4.25
2022-09-04T03:43:26.530Z,5.00
2022-09-04T03:49:20.391Z,3.00
2022-09-04T03:52:14.120Z,3.50
2022-09-04T03:58:10.798Z,4.00
2022-09-04T04:00:50.312Z,2.50
2022-09-04T04:03:29.647Z,5.25
2022-09-04T04:06:22.616Z,6.00
2022-09-04T04:09:07.752Z,4.00
2022-09-04T04:14:37.984Z,5.75
2022-09-04T04:20:24.173Z,6.25
2022-09-04T04:23:18.702Z,3.00
2022-09-04T04:26:12.460Z,6.25
2022-09-04T04:29:05.423Z,4.25
2022-09-04T04:32:10.327Z,5.00
2022-09-04T04:34:46.573Z,5.25
2022-09-04T04:37:46.692Z,3.75
2022-09-04T04:40:28.805Z,4.75
2022-09-04T04:46:15.902Z,4.00
2022-09-04T04:49:06.810Z,5.25
2022-09-04T04:52:15.297Z,5.25
2022-09-04T04:55:03.401Z,6.00
2022-09-04T05:01:07.716Z,4.00
2022-09-04T05:04:12.387Z,5.00
2022-09-04T05:09:58.413Z,5.50
2022-09-04T05:12:40.808Z,5.50
2022-09-04T05:15:32.658Z,4.00
2022-09-04T05:18:23.825Z,4.00
2022-09-04T05:21:20.407Z,5.00
2022-09-04T05:23:56.597Z,5.75
2022-09-04T05:26:58.622Z,6.50
2022-09-04T05:29:54.244Z,5.00
2022-09-04T05:32:27.563Z,4.50
2022-09-04T05:35:17.345Z,5.50
2022-09-04T05:38:18.802Z,4.25
2022-09-04T05:41:22.092Z,3.00
2022-09-04T05:47:09.302Z,4.60
2022-09-04T05:50:09.940Z,5.20
2022-09-04T05:52:55.435Z,4.00
2022-09-04T05:55:40.446Z,4.00
2022-09-04T05:58:30.333Z,4.00
2022-09-04T06:01:29.404Z,3.80
2022-09-04T06:04:35.656Z,5.00
2022-09-04T06:07:08.863Z,1.60
2022-09-04T06:09:43.210Z,3.80
2022-09-04T06:12:28.359Z,3.80
2022-09-04T06:18:31.395Z,3.60
2022-09-04T06:21:07.190Z,4.40
2022-09-04T06:23:46.740Z,2.80
2022-09-04T06:26:34.835Z,1.80
2022-09-04T06:29:17.014Z,2.20
2022-09-04T06:32:05.735Z,3.40
2022-09-04T06:37:39.472Z,4.00
2022-09-04T06:40:27.416Z,3.60
2022-09-04T06:46:00.176Z,2.00
2022-09-04T06:48:53.463Z,2.00
2022-09-04T06:51:38.790Z,2.40
2022-09-04T06:54:18.053Z,1.40
2022-09-04T07:00:06.844Z,4.00
2022-09-04T07:05:48.127Z,0.60
2022-09-04T07:08:27.523Z,1.60
2022-09-04T07:11:34.720Z,2.00
2022-09-04T07:14:27.981Z,2.00
2022-09-04T07:17:17.686Z,1.00
2022-09-04T07:20:07.242Z,1.20
2022-09-04T07:22:59.729Z,1.00
2022-09-04T07:25:38.861Z,1.00
2022-09-04T07:28:12.288Z,2.00
2022-09-04T07:30:46.581Z,2.20
2022-09-04T07:33:22.222Z,1.40
2022-09-04T07:36:04.126Z,1.80
2022-09-04T07:38:53.334Z,1.00
2022-09-04T07:41:32.770Z,1.00
2022-09-04T07:44:15.146Z,1.40
2022-09-04T07:46:57.168Z,2.60
2022-09-04T07:49:30.520Z,2.00
2022-09-04T07:52:04.916Z,0.00
2022-09-04T07:54:59.098Z,1.80
2022-09-04T07:57:56.947Z,1.60
2022-09-04T08:00:31.656Z,2.00
2022-09-04T08:03:19.404Z,1.00
2022-09-04T08:06:19.950Z,1.80
2022-09-04T08:12:19.596Z,3.00
2022-09-04T08:15:09.451Z,3.00
2022-09-04T08:17:59.969Z,1.00
2022-09-04T08:20:55.869Z,1.80
2022-09-04T08:23:45.342Z,3.40
2022-09-04T08:26:21.246Z,1.00
2022-09-04T08:29:14.259Z,1.80
2022-09-04T08:32:09.014Z,1.00
2022-09-04T08:34:55.951Z,2.60
2022-09-04T08:37:42.793Z,2.20
2022-09-04T08:40:32.606Z,0.00
2022-09-04T08:43:18.344Z,2.20
2022-09-04T08:46:20.640Z,3.00
2022-09-04T08:49:11.897Z,2.80
2022-09-04T08:52:04.616Z,2.00
2022-09-04T08:58:13.429Z,2.00
2022-09-04T09:01:19.826Z,2.00
2022-09-04T09:04:26.002Z,3.00
2022-09-04T09:07:08.255Z,2.00
2022-09-04T09:10:14.613Z,3.00
2022-09-04T09:13:14.457Z,4.00
2022-09-04T09:16:09.029Z,2.60
2022-09-04T09:18:50.938Z,2.40
2022-09-04T09:27:39.682Z,2.00
2022-09-04T09:30:21.251Z,2.20
2022-09-04T09:36:33.253Z,2.80
2022-09-04T09:39:15.649Z,2.00
2022-09-04T09:42:11.470Z,1.60
2022-09-04T09:45:01.506Z,1.80
2022-09-04T09:47:52.584Z,3.00
2022-09-04T09:50:38.329Z,2.00
2022-09-04T09:53:31.849Z,2.00
2022-09-04T09:56:23.211Z,3.00
2022-09-04T09:59:15.893Z,3.00
2022-09-04T10:01:51.928Z,3.00
2022-09-04T10:04:40.109Z,4.00
2022-09-04T10:07:32.756Z,4.00
2022-09-04T10:10:25.303Z,4.00
2022-09-04T10:13:19.801Z,3.40
2022-09-04T10:16:03.915Z,4.50
2022-09-04T10:19:04.310Z,1.40
2022-09-04T10:21:57.188Z,2.80
2022-09-04T10:24:52.777Z,2.00
2022-09-04T10:27:31.745Z,1.20
2022-09-04T10:30:06.290Z,1.60
2022-09-04T10:32:42.881Z,2.00
2022-09-04T10:35:24.742Z,1.00
2022-09-04T10:38:07.073Z,2.00
2022-09-04T10:41:04.549Z,2.00
2022-09-04T10:44:06.549Z,1.00
2022-09-04T10:46:48.857Z,1.80
2022-09-04T10:49:57.949Z,1.00
2022-09-04T10:52:53.481Z,1.20
2022-09-04T10:55:49.225Z,3.60
2022-09-04T10:58:52.837Z,0.00
2022-09-04T11:01:40.684Z,3.20
2022-09-04T11:04:23.194Z,0.60
2022-09-04T11:07:14.677Z,1.60
2022-09-04T11:12:48.715Z,2.80
2022-09-04T11:15:30.895Z,0.40
2022-09-04T11:21:10.505Z,1.00
2022-09-04T11:24:11.239Z,1.00
2022-09-04T11:27:07.427Z,0.60
2022-09-04T11:29:47.918Z,0.20
2022-09-04T11:32:29.498Z,0.00
2022-09-04T11:35:34.865Z,0.00
2022-09-04T11:38:26.306Z,0.00
2022-09-04T11:41:05.621Z,0.00
2022-09-04T11:43:56.867Z,0.00
2022-09-04T11:47:03.062Z,0.00
2022-09-04T11:50:05.426Z,0.40
2022-09-04T11:53:12.020Z,1.00
2022-09-04T11:56:09.645Z,0.40
2022-09-04T11:58:54.805Z,1.00
2022-09-04T12:01:28.319Z,1.00
2022-09-04T12:04:28.376Z,0.20
2022-09-04T12:07:33.681Z,0.00
2022-09-04T12:10:18.225Z,1.00
2022-09-04T12:13:14.675Z,1.40
2022-09-04T12:16:02.571Z,0.00
2022-09-04T12:19:02.422Z,0.00
2022-09-04T12:21:59.873Z,1.80
2022-09-04T12:24:47.967Z,1.00
2022-09-04T12:27:26.653Z,0.00
2022-09-04T12:30:05.630Z,1.80
2022-09-04T12:33:08.744Z,2.00
2022-09-04T12:36:05.075Z,0.40
2022-09-04T12:38:59.309Z,2.00
2022-09-04T12:41:49.871Z,0.60
2022-09-04T12:44:41.189Z,0.60
2022-09-04T12:47:26.083Z,0.80
2022-09-04T12:50:08.848Z,1.00
2022-09-04T12:53:03.422Z,1.00
2022-09-04T12:55:57.833Z,1.80
2022-09-04T12:58:47.691Z,0.60
2022-09-04T13:01:32.740Z,2.20
2022-09-04T13:04:06.307Z,1.40
2022-09-04T13:07:15.704Z,1.00
2022-09-04T13:10:09.877Z,0.80
2022-09-04T13:13:06.100Z,0.60
2022-09-04T13:15:57.583Z,1.20
2022-09-04T13:18:40.083Z,1.60
2022-09-04T13:21:31.067Z,1.00
2022-09-04T13:24:16.110Z,0.80
2022-09-04T13:27:17.453Z,1.00
2022-09-04T13:30:09.093Z,1.40
2022-09-04T13:32:54.326Z,0.40
2022-09-04T13:35:44.798Z,0.20
2022-09-04T13:38:35.998Z,1.20
2022-09-04T13:41:30.246Z,2.40
2022-09-04T13:44:06.131Z,4.80
2022-09-04T13:46:48.289Z,4.60
2022-09-04T13:52:08.741Z,5.20
2022-09-04T13:54:44.679Z,3.20
2022-09-04T13:57:20.890Z,2.00
2022-09-04T13:59:51.606Z,0.20
2022-09-04T14:02:35.144Z,0.00
2022-09-04T14:05:11.384Z,0.20
2022-09-04T14:07:46.097Z,1.00
2022-09-04T14:10:22.086Z,1.00
2022-09-04T14:13:01.344Z,0.00
2022-09-04T14:18:49.573Z,0.00
2022-09-04T14:21:43.615Z,0.20
2022-09-04T14:24:22.652Z,1.20
2022-09-04T14:27:11.388Z,1.60
2022-09-04T14:30:02.719Z,0.80
2022-09-04T14:33:06.209Z,2.60
2022-09-04T14:35:46.374Z,2.00
2022-09-04T14:38:31.474Z,0.80
2022-09-04T14:41:19.669Z,1.80
2022-09-04T14:43:58.336Z,2.00
2022-09-04T14:46:43.535Z,1.20
2022-09-04T14:49:19.670Z,2.20
2022-09-04T14:51:55.701Z,3.00
2022-09-04T14:54:33.672Z,3.60
2022-09-04T14:57:24.419Z,2.00
2022-09-04T15:00:05.965Z,0.00
2022-09-04T15:03:04.567Z,0.60
2022-09-04T15:05:50.780Z,1.60
2022-09-04T15:08:35.671Z,3.00
2022-09-04T15:11:08.663Z,1.40
2022-09-04T15:13:48.389Z,1.60
2022-09-04T15:16:27.641Z,0.20
2022-09-04T15:19:00.963Z,1.60
2022-09-04T15:21:37.516Z,4.80
2022-09-04T15:24:30.221Z,2.60
2022-09-04T15:27:12.686Z,3.00
2022-09-04T15:29:53.434Z,3.00
2022-09-04T15:32:29.702Z,3.00
2022-09-04T15:35:21.516Z,2.60
2022-09-04T15:38:24.645Z,3.60
2022-09-04T15:41:16.993Z,3.50
2022-09-04T15:49:31.165Z,2.40
2022-09-04T15:52:22.357Z,3.60
2022-09-04T15:55:03.107Z,5.00
2022-09-04T15:57:45.752Z,5.00
2022-09-04T16:00:22.896Z,6.00
2022-09-04T16:03:04.769Z,4.00
2022-09-04T16:05:46.783Z,4.80
2022-09-04T16:08:21.143Z,4.00
2022-09-04T16:11:12.751Z,2.75
2022-09-04T16:13:46.697Z,3.00
2022-09-04T16:16:39.812Z,2.40
2022-09-04T16:19:28.930Z,3.00
2022-09-04T16:22:41.462Z,4.00
2022-09-04T16:25:14.739Z,3.50
2022-09-04T16:27:50.958Z,6.75
2022-09-04T16:30:39.266Z,6.50
2022-09-04T16:33:27.767Z,4.75
2022-09-04T16:36:18.034Z,3.00
2022-09-04T16:38:59.955Z,3.25
2022-09-04T16:41:42.480Z,3.75
2022-09-04T16:44:27.403Z,3.00
2022-09-04T16:47:12.574Z,5.00
2022-09-04T16:50:10.178Z,2.00
2022-09-04T16:52:46.371Z,3.00
2022-09-04T16:55:28.534Z,3.75
2022-09-04T16:58:12.254Z,2.25
2022-09-04T17:00:54.444Z,4.00
2022-09-04T17:03:29.341Z,6.50
2022-09-04T17:06:02.608Z,4.75
2022-09-04T17:08:35.985Z,8.00
2022-09-04T17:11:31.888Z,13.75
2022-09-04T17:14:11.297Z,13.00
2022-09-04T17:16:53.983Z,12.75
2022-09-04T17:19:25.655Z,13.75
2022-09-04T17:28:53.904Z,16.00
2022-09-04T17:29:02.284Z,13.25
2022-09-04T17:29:10.279Z,14.25
2022-09-04T17:31:02.290Z,15.75
2022-09-04T17:40:33.848Z,11.00
2022-09-04T17:40:37.076Z,10.00
2022-09-04T17:40:55.089Z,11.00
2022-09-04T17:41:55.821Z,9.00
2022-09-04T17:44:50.872Z,12.75
2022-09-04T17:47:32.480Z,10.75
2022-09-04T17:50:04.784Z,11.75
2022-09-04T17:52:38.143Z,10.50
2022-09-04T17:55:11.629Z,11.00
2022-09-04T17:57:53.475Z,11.25
2022-09-04T18:00:30.177Z,10.00
2022-09-04T18:03:09.021Z,8.75
2022-09-04T18:05:53.778Z,9.25
2022-09-04T18:08:29.283Z,8.75
2022-09-04T18:11:14.332Z,8.00
2022-09-04T18:14:20.255Z,6.00
2022-09-04T18:23:16.970Z,8.00
2022-09-04T18:25:50.245Z,19.25
2022-09-04T18:28:23.787Z,15.00
2022-09-04T18:37:05.535Z,7.75
2022-09-04T18:37:16.620Z,6.50
2022-09-04T18:37:26.392Z,8.00
2022-09-04T18:39:14.717Z,6.00
2022-09-04T18:50:20.644Z,8.00
2022-09-04T18:50:39.518Z,7.00
2022-09-04T18:53:15.620Z,6.50
2022-09-04T18:58:36.215Z,8.00
2022-09-04T19:01:27.037Z,6.75
2022-09-04T19:04:00.708Z,6.50
2022-09-04T19:09:48.707Z,5.75
2022-09-04T19:12:19.094Z,6.00
2022-09-04T19:14:53.169Z,7.25
2022-09-04T19:17:27.099Z,6.50
2022-09-04T19:20:16.745Z,5.00
2022-09-04T19:22:56.951Z,7.00
2022-09-04T19:25:36.961Z,5.00
2022-09-04T19:28:13.238Z,4.00
2022-09-04T19:36:32.416Z,5.75
2022-09-04T19:45:53.771Z,6.75
2022-09-04T19:46:14.378Z,4.00
2022-09-04T19:46:19.485Z,6.00
2022-09-04T19:47:29.107Z,6.25
2022-09-04T19:53:17.690Z,4.75
2022-09-04T19:53:33.790Z,6.00
2022-09-04T19:55:48.054Z,5.75
2022-09-04T19:58:21.642Z,7.50
2022-09-04T20:01:04.266Z,7.00
2022-09-04T20:04:01.000Z,8.25
2022-09-04T20:06:34.732Z,5.00
2022-09-04T20:09:40.888Z,10.50
2022-09-04T20:12:33.416Z,11.00
2022-09-04T20:15:12.617Z,11.75
2022-09-04T20:18:08.963Z,10.25
2022-09-04T20:21:04.881Z,13.50
2022-09-04T20:24:06.040Z,15.25
2022-09-04T20:26:48.738Z,15.25
2022-09-04T20:29:26.347Z,17.00
2022-09-04T20:32:26.667Z,17.75
2022-09-04T20:35:13.162Z,19.00
2022-09-04T20:37:45.943Z,21.50
2022-09-04T20:40:22.865Z,21.00
2022-09-04T20:43:09.250Z,19.25
2022-09-04T20:50:21.790Z,20.50
2022-09-04T20:52:54.030Z,20.75
2022-09-04T20:52:57.016Z,22.00
2022-09-04T20:54:55.155Z,20.00
2022-09-04T21:02:23.124Z,21.25
2022-09-04T21:03:21.624Z,21.50
2022-09-04T21:03:28.166Z,19.25
2022-09-04T21:05:46.100Z,21.75
2022-09-04T21:08:31.130Z,22.00
2022-09-04T21:11:04.272Z,17.00
2022-09-04T21:13:49.466Z,13.50
2022-09-04T21:16:52.197Z,21.00
2022-09-04T21:19:41.869Z,17.25
2022-09-04T21:22:33.872Z,14.50
2022-09-04T21:25:07.421Z,15.75
2022-09-04T21:27:44.036Z,13.50
2022-09-04T21:30:19.269Z,12.50
2022-09-04T21:33:03.677Z,14.00
2022-09-04T21:35:41.665Z,15.00
2022-09-04T21:38:39.102Z,14.75
2022-09-04T21:41:35.293Z,13.00
2022-09-04T21:44:30.853Z,14.00
2022-09-04T21:47:30.471Z,13.50
2022-09-04T21:50:36.412Z,7.75
2022-09-04T21:53:12.713Z,11.75
2022-09-04T22:00:00.691Z,9.75
2022-09-04T22:02:36.671Z,11.75
2022-09-04T22:02:40.287Z,9.00
2022-09-04T22:04:57.031Z,9.00
2022-09-04T22:11:26.833Z,8.25
2022-09-04T22:13:30.218Z,10.00
2022-09-04T22:13:41.160Z,8.25
2022-09-04T22:15:58.568Z,12.75
2022-09-04T22:18:34.302Z,11.00
2022-09-04T22:21:31.483Z,12.00
2022-09-04T22:24:13.565Z,9.00
2022-09-04T22:26:49.792Z,10.00
2022-09-04T22:29:48.794Z,11.00
2022-09-04T22:32:47.848Z,10.25
2022-09-04T22:35:52.871Z,6.00
2022-09-04T22:44:51.676Z,6.00
2022-09-04T22:47:30.619Z,9.00
2022-09-04T22:50:49.224Z,10.00
2022-09-04T22:53:03.494Z,10.00
2022-09-04T22:56:17.823Z,9.75
2022-09-04T22:58:51.197Z,8.75
2022-09-04T23:02:01.299Z,10.00
2022-09-04T23:13:42.345Z,9.00
2022-09-04T23:13:48.668Z,11.50
2022-09-04T23:13:57.714Z,7.00
2022-09-04T23:16:28.282Z,9.00
2022-09-04T23:21:59.748Z,8.50
2022-09-04T23:26:33.321Z,9.75
2022-09-04T23:26:44.824Z,8.50
2022-09-04T23:27:59.500Z,9.00
2022-09-04T23:30:34.162Z,8.00
2022-09-04T23:33:44.711Z,12.00
2022-09-04T23:36:28.521Z,8.25
2022-09-04T23:39:02.199Z,7.00
2022-09-04T23:41:53.012Z,10.25
2022-09-04T23:47:47.858Z,13.00
2022-09-04T23:50:49.143Z,11.50
2022-09-04T23:53:48.074Z,12.75
2022-09-04T23:56:24.231Z,11.00
2022-09-04T23:59:05.758Z,12.75
